Ana Sayfa
METAR-TAF:

METAR-TAF

Havaalanları :

University Park Airport

State College, Pensilvanya, Amerika Birleşik Devletleri

Enlem: 40-51N, Boylam: 077-51W, yükseklik: 378 m

Güncel hava durumu gözlemi

Rapor saat 15:53 UTC de 54 dakika önce yapıldı.
Rüzgar batıdan 14 kt ve 20 kt'a kadar ani rüzgarlar
Sıcaklık 4°C
Nem 23%
Basınç 1025 hPa
Görüş mesafesi: 16.1 km
Açık gökyüzü

METAR: KUNV 221553Z 28014G20KT 10SM SKC 04/M15 A3026

Saat: 11:47 (16:47 UTC)

Tahmin

Rapor saat 15:59 UTC de 48 dakika önce yapıldı.
Ayın 22'si saat 16 UTC'den ayın 23'si saat 12 UTC'ye kadar geçerli Tahmin
Rüzgar batıdan 13 kt ve 18 kt'a kadar ani rüzgarlar
Görüş mesafesi: 10 km
Açık gökyüzü
Ayın 23'si saat 0100 UTC'den
Rüzgar batı/güneybatıdan 4 kt
Görüş mesafesi: 10 km
Açık gökyüzü

TAF: KUNV 221559Z 2216/2312 26013G18KT P6SM SKC FM230100 25004KT P6SM SKC

4.000'den fazla havaalanı için hava durumu gözlemleri ve tahminleri (METAR ve TAF raporları).

Kullanılabilir istasyonlar harita üzerinde sarı ve kırmızı noktalarla gösterilir.

İstasyonun adını görmek için fareyi noktanın üzerinde gezdirin.

Sonrasında hava gözlem ve tahminlerini görmek için tıklayın.

Haritayı değiştirmek için: yaklaştırmak için siyah artı işaretli yeşil düğmeye ve uzaklaştırmak için de eksi işaretli düğmeye hızla tıklayın; bitişik haritalar için yeşil okları kullanın.


METAR-TAF: